sensor_id;sensor_type;location;lat;lon;timestamp;pressure;altitude;pressure_sealevel;temperature;humidity
40730;BME280;26418;50.070;8.436;2023-05-15T00:01:21;99639.72;;;12.90;72.38
40730;BME280;26418;50.070;8.436;2023-05-15T00:03:47;99634.97;;;12.78;72.41
40730;BME280;26418;50.070;8.436;2023-05-15T00:06:13;99641.50;;;12.77;72.51
40730;BME280;26418;50.070;8.436;2023-05-15T00:08:39;99630.16;;;12.75;72.83
40730;BME280;26418;50.070;8.436;2023-05-15T00:11:05;99635.59;;;12.75;72.65
40730;BME280;26418;50.070;8.436;2023-05-15T00:13:31;99635.59;;;12.75;72.41
40730;BME280;26418;50.070;8.436;2023-05-15T00:15:56;99631.59;;;12.81;72.08
40730;BME280;26418;50.070;8.436;2023-05-15T00:18:22;99634.28;;;12.81;72.08
40730;BME280;26418;50.070;8.436;2023-05-15T00:20:47;99634.63;;;12.80;72.21
40730;BME280;26418;50.070;8.436;2023-05-15T00:23:13;99626.34;;;12.76;72.23
40730;BME280;26418;50.070;8.436;2023-05-15T00:25:39;99631.44;;;12.78;72.33
40730;BME280;26418;50.070;8.436;2023-05-15T00:28:04;99632.56;;;12.77;72.34
40730;BME280;26418;50.070;8.436;2023-05-15T00:30:30;99621.09;;;12.71;72.04
40730;BME280;26418;50.070;8.436;2023-05-15T00:32:56;99612.63;;;12.64;72.01
40730;BME280;26418;50.070;8.436;2023-05-15T00:35:21;99621.25;;;12.66;72.15
40730;BME280;26418;50.070;8.436;2023-05-15T00:37:47;99610.41;;;12.57;71.90
40730;BME280;26418;50.070;8.436;2023-05-15T00:40:19;99622.06;;;12.57;71.88
40730;BME280;26418;50.070;8.436;2023-05-15T00:42:46;99614.88;;;12.53;71.73
40730;BME280;26418;50.070;8.436;2023-05-15T00:45:12;99618.06;;;12.55;71.79
40730;BME280;26418;50.070;8.436;2023-05-15T00:47:39;99613.44;;;12.55;71.36
40730;BME280;26418;50.070;8.436;2023-05-15T00:50:06;99608.81;;;12.56;71.24
40730;BME280;26418;50.070;8.436;2023-05-15T00:52:32;99617.88;;;12.60;70.84
40730;BME280;26418;50.070;8.436;2023-05-15T00:54:58;99619.63;;;12.65;70.50
40730;BME280;26418;50.070;8.436;2023-05-15T00:57:24;99607.69;;;12.66;69.97
40730;BME280;26418;50.070;8.436;2023-05-15T00:59:51;99605.44;;;12.68;69.63
40730;BME280;26418;50.070;8.436;2023-05-15T01:02:17;99608.63;;;12.70;69.86
40730;BME280;26418;50.070;8.436;2023-05-15T01:04:45;99610.53;;;12.69;69.57
40730;BME280;26418;50.070;8.436;2023-05-15T01:07:11;99605.59;;;12.71;69.67
40730;BME280;26418;50.070;8.436;2023-05-15T01:09:37;99608.78;;;12.73;69.35
40730;BME280;26418;50.070;8.436;2023-05-15T01:12:05;99603.22;;;12.70;69.23
40730;BME280;26418;50.070;8.436;2023-05-15T01:14:31;99600.50;;;12.70;69.20
40730;BME280;26418;50.070;8.436;2023-05-15T01:16:57;99603.38;;;12.73;69.26
40730;BME280;26418;50.070;8.436;2023-05-15T01:19:23;99605.41;;;12.77;69.19
40730;BME280;26418;50.070;8.436;2023-05-15T01:22:09;99608.47;;;12.75;69.21
40730;BME280;26418;50.070;8.436;2023-05-15T01:27:57;99616.28;;;12.68;69.73
40730;BME280;26418;50.070;8.436;2023-05-15T01:30:30;99617.44;;;12.58;70.35
40730;BME280;26418;50.070;8.436;2023-05-15T01:36:11;99623.84;;;12.36;72.50
40730;BME280;26418;50.070;8.436;2023-05-15T01:38:51;99614.25;;;12.21;73.24
40730;BME280;26418;50.070;8.436;2023-05-15T01:41:25;99620.47;;;12.13;73.86
40730;BME280;26418;50.070;8.436;2023-05-15T01:44:18;99619.81;;;12.07;74.25
40730;BME280;26418;50.070;8.436;2023-05-15T01:46:49;99611.56;;;12.12;74.76
40730;BME280;26418;50.070;8.436;2023-05-15T01:49:18;99611.56;;;12.12;74.70
40730;BME280;26418;50.070;8.436;2023-05-15T01:51:46;99615.84;;;12.04;74.92
40730;BME280;26418;50.070;8.436;2023-05-15T01:54:14;99601.97;;;11.97;75.11
40730;BME280;26418;50.070;8.436;2023-05-15T01:56:41;99618.03;;;11.93;75.17
40730;BME280;26418;50.070;8.436;2023-05-15T01:59:11;99620.25;;;11.91;75.39
40730;BME280;26418;50.070;8.436;2023-05-15T02:01:38;99617.53;;;11.83;75.80
40730;BME280;26418;50.070;8.436;2023-05-15T02:04:05;99616.72;;;11.82;76.33
40730;BME280;26418;50.070;8.436;2023-05-15T02:06:31;99610.66;;;11.76;76.47
40730;BME280;26418;50.070;8.436;2023-05-15T02:09:01;99623.75;;;11.74;76.42
40730;BME280;26418;50.070;8.436;2023-05-15T02:11:26;99617.66;;;11.69;76.81
40730;BME280;26418;50.070;8.436;2023-05-15T02:13:53;99615.75;;;11.69;77.18
40730;BME280;26418;50.070;8.436;2023-05-15T02:16:21;99619.56;;;11.68;77.04
40730;BME280;26418;50.070;8.436;2023-05-15T02:18:47;99602.69;;;11.62;77.31
40730;BME280;26418;50.070;8.436;2023-05-15T02:21:13;99608.28;;;11.66;77.25
40730;BME280;26418;50.070;8.436;2023-05-15T02:23:39;99616.69;;;11.64;77.47
40730;BME280;26418;50.070;8.436;2023-05-15T02:26:25;99609.66;;;11.63;77.32
40730;BME280;26418;50.070;8.436;2023-05-15T02:32:21;99614.47;;;11.58;77.47
40730;BME280;26418;50.070;8.436;2023-05-15T02:35:26;99616.34;;;11.48;77.75
40730;BME280;26418;50.070;8.436;2023-05-15T02:37:59;99611.38;;;11.42;77.97
40730;BME280;26418;50.070;8.436;2023-05-15T02:40:27;99624.13;;;11.41;77.98
40730;BME280;26418;50.070;8.436;2023-05-15T02:42:54;99616.13;;;11.36;78.07
40730;BME280;26418;50.070;8.436;2023-05-15T02:45:21;99619.16;;;11.35;78.28
40730;BME280;26418;50.070;8.436;2023-05-15T02:47:49;99610.03;;;11.30;78.53
40730;BME280;26418;50.070;8.436;2023-05-15T02:50:15;99611.34;;;11.33;78.30
40730;BME280;26418;50.070;8.436;2023-05-15T02:52:41;99619.16;;;11.35;78.14
40730;BME280;26418;50.070;8.436;2023-05-15T02:55:07;99613.41;;;11.27;78.47
40730;BME280;26418;50.070;8.436;2023-05-15T02:57:33;99604.63;;;11.22;78.71
40730;BME280;26418;50.070;8.436;2023-05-15T02:59:58;99610.97;;;11.26;78.90
40730;BME280;26418;50.070;8.436;2023-05-15T03:02:24;99611.16;;;11.29;79.05
40730;BME280;26418;50.070;8.436;2023-05-15T03:04:50;99607.66;;;11.29;79.24
40730;BME280;26418;50.070;8.436;2023-05-15T03:07:16;99614.50;;;11.26;79.39
40730;BME280;26418;50.070;8.436;2023-05-15T03:09:41;99607.31;;;11.22;79.65
40730;BME280;26418;50.070;8.436;2023-05-15T03:12:08;99601.06;;;11.12;79.79
40730;BME280;26418;50.070;8.436;2023-05-15T03:14:34;99613.06;;;11.20;80.09
40730;BME280;26418;50.070;8.436;2023-05-15T03:16:59;99615.94;;;11.24;79.94
40730;BME280;26418;50.070;8.436;2023-05-15T03:19:25;99614.81;;;11.25;80.21
40730;BME280;26418;50.070;8.436;2023-05-15T03:21:50;99617.03;;;11.23;80.60
40730;BME280;26418;50.070;8.436;2023-05-15T03:24:16;99601.72;;;11.18;80.81
40730;BME280;26418;50.070;8.436;2023-05-15T03:26:42;99603.78;;;11.21;80.62
40730;BME280;26418;50.070;8.436;2023-05-15T03:29:09;99611.09;;;11.12;80.97
40730;BME280;26418;50.070;8.436;2023-05-15T03:31:34;99609.94;;;11.04;81.35
40730;BME280;26418;50.070;8.436;2023-05-15T03:34:00;99622.06;;;11.07;81.71
40730;BME280;26418;50.070;8.436;2023-05-15T03:36:26;99622.06;;;11.07;81.72
40730;BME280;26418;50.070;8.436;2023-05-15T03:38:51;99622.69;;;11.04;81.75
40730;BME280;26418;50.070;8.436;2023-05-15T03:41:17;99633.19;;;11.05;81.84
40730;BME280;26418;50.070;8.436;2023-05-15T03:43:42;99618.06;;;11.04;82.07
40730;BME280;26418;50.070;8.436;2023-05-15T03:46:08;99613.75;;;11.03;81.96
40730;BME280;26418;50.070;8.436;2023-05-15T03:48:33;99624.59;;;11.03;82.30
40730;BME280;26418;50.070;8.436;2023-05-15T03:50:59;99615.19;;;11.00;82.66
40730;BME280;26418;50.070;8.436;2023-05-15T03:53:25;99610.19;;;10.94;82.84
40730;BME280;26418;50.070;8.436;2023-05-15T03:55:50;99627.09;;;10.99;83.33
40730;BME280;26418;50.070;8.436;2023-05-15T03:58:16;99615.00;;;10.97;82.94
40730;BME280;26418;50.070;8.436;2023-05-15T04:00:41;99616.59;;;10.98;82.90
40730;BME280;26418;50.070;8.436;2023-05-15T04:03:08;99620.72;;;10.95;82.85
40730;BME280;26418;50.070;8.436;2023-05-15T04:05:33;99618.03;;;10.95;83.19
40730;BME280;26418;50.070;8.436;2023-05-15T04:07:59;99616.09;;;10.96;83.17
40730;BME280;26418;50.070;8.436;2023-05-15T04:10:24;99610.69;;;10.96;83.31
40730;BME280;26418;50.070;8.436;2023-05-15T04:12:50;99604.50;;;10.95;83.15
40730;BME280;26418;50.070;8.436;2023-05-15T04:15:25;99610.88;;;10.99;83.36
40730;BME280;26418;50.070;8.436;2023-05-15T04:17:53;99603.88;;;10.98;83.45
40730;BME280;26418;50.070;8.436;2023-05-15T04:20:21;99612.66;;;11.04;83.60
40730;BME280;26418;50.070;8.436;2023-05-15T04:22:47;99608.84;;;11.05;83.43
40730;BME280;26418;50.070;8.436;2023-05-15T04:25:14;99611.72;;;11.09;83.40
40730;BME280;26418;50.070;8.436;2023-05-15T04:27:40;99617.81;;;11.14;83.55
40730;BME280;26418;50.070;8.436;2023-05-15T04:30:07;99597.09;;;11.10;83.61
40730;BME280;26418;50.070;8.436;2023-05-15T04:32:33;99606.66;;;11.16;83.84
40730;BME280;26418;50.070;8.436;2023-05-15T04:35:00;99598.38;;;11.21;84.02
40730;BME280;26418;50.070;8.436;2023-05-15T04:37:27;99601.75;;;11.27;83.88
40730;BME280;26418;50.070;8.436;2023-05-15T04:39:53;99600.31;;;11.29;83.71
40730;BME280;26418;50.070;8.436;2023-05-15T04:42:18;99603.69;;;11.35;83.73
40730;BME280;26418;50.070;8.436;2023-05-15T04:44:44;99601.47;;;11.37;83.75
40730;BME280;26418;50.070;8.436;2023-05-15T04:47:09;99602.16;;;11.52;86.60
40730;BME280;26418;50.070;8.436;2023-05-15T04:49:36;99602.38;;;11.73;87.99
40730;BME280;26418;50.070;8.436;2023-05-15T04:52:01;99601.28;;;11.91;88.69
40730;BME280;26418;50.070;8.436;2023-05-15T04:54:27;99606.13;;;12.12;89.67
40730;BME280;26418;50.070;8.436;2023-05-15T04:56:52;99597.97;;;12.38;89.56
40730;BME280;26418;50.070;8.436;2023-05-15T04:59:18;99597.78;;;12.61;88.26
40730;BME280;26418;50.070;8.436;2023-05-15T05:01:44;99589.75;;;12.82;86.70
40730;BME280;26418;50.070;8.436;2023-05-15T05:04:09;99580.16;;;12.94;83.60
40730;BME280;26418;50.070;8.436;2023-05-15T05:06:35;99594.88;;;13.23;82.89
40730;BME280;26418;50.070;8.436;2023-05-15T05:09:00;99590.06;;;13.37;82.14
40730;BME280;26418;50.070;8.436;2023-05-15T05:11:26;99598.44;;;13.53;81.43
40730;BME280;26418;50.070;8.436;2023-05-15T05:13:51;99592.78;;;13.67;80.29
40730;BME280;26418;50.070;8.436;2023-05-15T05:16:17;99604.19;;;13.81;79.31
40730;BME280;26418;50.070;8.436;2023-05-15T05:18:43;99599.50;;;13.91;78.42
40730;BME280;26418;50.070;8.436;2023-05-15T05:21:08;99605.03;;;14.03;77.12
40730;BME280;26418;50.070;8.436;2023-05-15T05:23:35;99607.34;;;14.13;76.44
40730;BME280;26418;50.070;8.436;2023-05-15T05:26:01;99617.38;;;14.22;75.63
40730;BME280;26418;50.070;8.436;2023-05-15T05:28:27;99615.56;;;14.26;74.79
40730;BME280;26418;50.070;8.436;2023-05-15T05:30:53;99612.19;;;14.29;75.45
40730;BME280;26418;50.070;8.436;2023-05-15T05:33:18;99611.31;;;14.37;76.06
40730;BME280;26418;50.070;8.436;2023-05-15T05:35:44;99615.53;;;14.47;75.78
40730;BME280;26418;50.070;8.436;2023-05-15T05:38:09;99606.31;;;14.60;75.86
40730;BME280;26418;50.070;8.436;2023-05-15T05:40:35;99609.88;;;14.73;75.50
40730;BME280;26418;50.070;8.436;2023-05-15T05:43:02;99607.97;;;14.86;75.03
40730;BME280;26418;50.070;8.436;2023-05-15T05:45:28;99612.69;;;14.98;73.11
40730;BME280;26418;50.070;8.436;2023-05-15T05:47:55;99608.13;;;15.02;72.20
40730;BME280;26418;50.070;8.436;2023-05-15T05:50:21;99607.13;;;15.07;72.90
40730;BME280;26418;50.070;8.436;2023-05-15T05:52:47;99612.91;;;15.05;73.30
40730;BME280;26418;50.070;8.436;2023-05-15T05:55:13;99609.63;;;15.12;73.76
40730;BME280;26418;50.070;8.436;2023-05-15T05:57:39;99614.03;;;15.17;73.80
40730;BME280;26418;50.070;8.436;2023-05-15T06:00:05;99612.13;;;15.17;72.67
40730;BME280;26418;50.070;8.436;2023-05-15T06:02:34;99607.78;;;15.04;70.51
40730;BME280;26418;50.070;8.436;2023-05-15T06:05:00;99604.50;;;14.98;71.84
40730;BME280;26418;50.070;8.436;2023-05-15T06:07:25;99601.91;;;15.02;70.49
40730;BME280;26418;50.070;8.436;2023-05-15T06:09:51;99613.81;;;15.09;70.70
40730;BME280;26418;50.070;8.436;2023-05-15T06:12:17;99605.44;;;15.15;70.01
40730;BME280;26418;50.070;8.436;2023-05-15T06:14:42;99608.41;;;15.22;69.81
40730;BME280;26418;50.070;8.436;2023-05-15T06:17:08;99618.81;;;15.32;68.82
40730;BME280;26418;50.070;8.436;2023-05-15T06:19:33;99605.00;;;15.37;67.51
40730;BME280;26418;50.070;8.436;2023-05-15T06:21:59;99615.88;;;15.50;66.81
40730;BME280;26418;50.070;8.436;2023-05-15T06:24:25;99608.06;;;15.48;65.77
40730;BME280;26418;50.070;8.436;2023-05-15T06:26:51;99622.03;;;15.47;65.85
40730;BME280;26418;50.070;8.436;2023-05-15T06:29:16;99609.31;;;15.38;65.56
40730;BME280;26418;50.070;8.436;2023-05-15T06:31:42;99619.84;;;15.40;66.36
40730;BME280;26418;50.070;8.436;2023-05-15T06:34:07;99609.75;;;15.40;66.27
40730;BME280;26418;50.070;8.436;2023-05-15T06:36:33;99606.56;;;15.51;66.98
40730;BME280;26418;50.070;8.436;2023-05-15T06:38:59;99605.91;;;15.54;65.28
40730;BME280;26418;50.070;8.436;2023-05-15T06:41:25;99607.38;;;15.51;65.73
40730;BME280;26418;50.070;8.436;2023-05-15T06:43:50;99605.91;;;15.54;65.95
40730;BME280;26418;50.070;8.436;2023-05-15T06:46:16;99611.09;;;15.59;65.35
40730;BME280;26418;50.070;8.436;2023-05-15T06:48:43;99615.66;;;15.67;65.38
40730;BME280;26418;50.070;8.436;2023-05-15T06:51:09;99609.63;;;15.74;65.14
40730;BME280;26418;50.070;8.436;2023-05-15T06:53:35;99613.16;;;15.87;64.81
40730;BME280;26418;50.070;8.436;2023-05-15T06:56:01;99608.59;;;15.91;64.37
40730;BME280;26418;50.070;8.436;2023-05-15T06:58:26;99609.16;;;15.97;64.76
40730;BME280;26418;50.070;8.436;2023-05-15T07:00:52;99618.34;;;16.05;63.99
40730;BME280;26418;50.070;8.436;2023-05-15T07:03:17;99607.53;;;16.08;63.56
40730;BME280;26418;50.070;8.436;2023-05-15T07:05:44;99604.81;;;16.08;64.10
40730;BME280;26418;50.070;8.436;2023-05-15T07:08:09;99601.72;;;16.10;63.22
40730;BME280;26418;50.070;8.436;2023-05-15T07:10:35;99605.03;;;16.15;63.47
40730;BME280;26418;50.070;8.436;2023-05-15T07:13:00;99602.66;;;16.14;62.66
40730;BME280;26418;50.070;8.436;2023-05-15T07:15:26;99597.28;;;16.17;63.08
40730;BME280;26418;50.070;8.436;2023-05-15T07:17:52;99608.59;;;16.32;62.40
40730;BME280;26418;50.070;8.436;2023-05-15T07:20:17;99592.31;;;16.35;62.49
40730;BME280;26418;50.070;8.436;2023-05-15T07:22:43;99608.94;;;16.59;61.96
40730;BME280;26418;50.070;8.436;2023-05-15T07:25:08;99605.19;;;16.79;60.86
40730;BME280;26418;50.070;8.436;2023-05-15T07:27:34;99598.34;;;16.86;59.89
40730;BME280;26418;50.070;8.436;2023-05-15T07:30:01;99596.94;;;16.92;59.32
40730;BME280;26418;50.070;8.436;2023-05-15T07:32:28;99598.94;;;16.79;59.72
40730;BME280;26418;50.070;8.436;2023-05-15T07:34:55;99598.41;;;16.73;59.98
40730;BME280;26418;50.070;8.436;2023-05-15T07:37:20;99590.56;;;16.72;60.16
40730;BME280;26418;50.070;8.436;2023-05-15T07:39:47;99605.38;;;16.71;60.18
40730;BME280;26418;50.070;8.436;2023-05-15T07:42:13;99601.59;;;16.75;60.33
40730;BME280;26418;50.070;8.436;2023-05-15T07:44:38;99593.13;;;16.80;60.12
40730;BME280;26418;50.070;8.436;2023-05-15T07:47:04;99600.25;;;16.97;59.84
40730;BME280;26418;50.070;8.436;2023-05-15T07:49:30;99599.81;;;17.11;59.11
40730;BME280;26418;50.070;8.436;2023-05-15T07:51:55;99589.38;;;17.17;58.49
40730;BME280;26418;50.070;8.436;2023-05-15T07:54:21;99593.72;;;17.34;57.78
40730;BME280;26418;50.070;8.436;2023-05-15T07:56:47;99594.94;;;17.37;57.62
40730;BME280;26418;50.070;8.436;2023-05-15T07:59:12;99600.66;;;17.48;56.69
40730;BME280;26418;50.070;8.436;2023-05-15T08:01:38;99597.22;;;17.51;56.54
40730;BME280;26418;50.070;8.436;2023-05-15T08:04:07;99598.06;;;17.55;56.75
40730;BME280;26418;50.070;8.436;2023-05-15T08:06:34;99585.66;;;17.57;56.82
40730;BME280;26418;50.070;8.436;2023-05-15T08:09:01;99582.63;;;17.63;56.34
40730;BME280;26418;50.070;8.436;2023-05-15T08:11:27;99589.78;;;17.67;56.04
40730;BME280;26418;50.070;8.436;2023-05-15T08:13:52;99587.13;;;17.71;55.05
40730;BME280;26418;50.070;8.436;2023-05-15T08:16:18;99585.69;;;17.77;55.86
40730;BME280;26418;50.070;8.436;2023-05-15T08:18:43;99591.75;;;17.86;55.71
40730;BME280;26418;50.070;8.436;2023-05-15T08:21:09;99593.34;;;17.87;56.12
40730;BME280;26418;50.070;8.436;2023-05-15T08:23:35;99587.72;;;17.96;54.98
40730;BME280;26418;50.070;8.436;2023-05-15T08:26:01;99588.22;;;18.21;54.96
40730;BME280;26418;50.070;8.436;2023-05-15T08:28:26;99569.25;;;18.32;54.83
40730;BME280;26418;50.070;8.436;2023-05-15T08:30:52;99584.00;;;18.67;53.30
40730;BME280;26418;50.070;8.436;2023-05-15T08:33:17;99591.06;;;18.91;52.36
40730;BME280;26418;50.070;8.436;2023-05-15T08:35:43;99577.28;;;19.07;52.23
40730;BME280;26418;50.070;8.436;2023-05-15T08:38:09;99585.41;;;19.27;51.28
40730;BME280;26418;50.070;8.436;2023-05-15T08:40:34;99586.25;;;19.31;50.98
40730;BME280;26418;50.070;8.436;2023-05-15T08:43:02;99582.91;;;19.41;50.27
40730;BME280;26418;50.070;8.436;2023-05-15T08:45:31;99572.72;;;19.42;49.48
40730;BME280;26418;50.070;8.436;2023-05-15T08:47:57;99578.03;;;19.58;49.32
40730;BME280;26418;50.070;8.436;2023-05-15T08:50:25;99580.25;;;19.75;49.64
40730;BME280;26418;50.070;8.436;2023-05-15T08:52:51;99568.00;;;19.96;49.19
40730;BME280;26418;50.070;8.436;2023-05-15T08:55:22;99576.31;;;20.37;48.37
40730;BME280;26418;50.070;8.436;2023-05-15T08:57:48;99575.22;;;20.80;47.05
40730;BME280;26418;50.070;8.436;2023-05-15T09:00:15;99576.41;;;21.27;46.53
40730;BME280;26418;50.070;8.436;2023-05-15T09:02:42;99561.75;;;21.72;45.85
40730;BME280;26418;50.070;8.436;2023-05-15T09:05:08;99568.66;;;22.25;46.31
40730;BME280;26418;50.070;8.436;2023-05-15T09:07:34;99560.16;;;22.70;45.55
40730;BME280;26418;50.070;8.436;2023-05-15T09:10:01;99564.09;;;22.90;41.32
40730;BME280;26418;50.070;8.436;2023-05-15T09:12:32;99571.19;;;22.91;41.20
40730;BME280;26418;50.070;8.436;2023-05-15T09:15:14;99564.50;;;22.96;40.62
40730;BME280;26418;50.070;8.436;2023-05-15T09:17:43;99562.97;;;23.20;40.36
40730;BME280;26418;50.070;8.436;2023-05-15T09:20:34;99558.19;;;23.53;40.14
40730;BME280;26418;50.070;8.436;2023-05-15T09:23:02;99561.31;;;23.52;38.41
40730;BME280;26418;50.070;8.436;2023-05-15T09:28:05;99550.72;;;23.21;39.63
40730;BME280;26418;50.070;8.436;2023-05-15T09:30:31;99549.16;;;23.17;40.87
40730;BME280;26418;50.070;8.436;2023-05-15T09:33:00;99555.06;;;23.26;40.49
40730;BME280;26418;50.070;8.436;2023-05-15T09:35:30;99551.94;;;23.20;40.70
40730;BME280;26418;50.070;8.436;2023-05-15T09:37:59;99544.41;;;23.14;41.08
40730;BME280;26418;50.070;8.436;2023-05-15T09:40:28;99545.22;;;22.85;42.10
40730;BME280;26418;50.070;8.436;2023-05-15T09:42:54;99542.03;;;22.72;43.26
40730;BME280;26418;50.070;8.436;2023-05-15T09:45:20;99544.81;;;22.65;43.53
40730;BME280;26418;50.070;8.436;2023-05-15T09:47:46;99547.50;;;22.40;44.92
40730;BME280;26418;50.070;8.436;2023-05-15T09:50:11;99541.91;;;22.18;45.57
40730;BME280;26418;50.070;8.436;2023-05-15T09:52:37;99547.44;;;22.22;45.00
40730;BME280;26418;50.070;8.436;2023-05-15T09:55:05;99537.19;;;22.19;45.32
40730;BME280;26418;50.070;8.436;2023-05-15T09:57:31;99544.31;;;22.38;46.26
40730;BME280;26418;50.070;8.436;2023-05-15T09:59:59;99542.41;;;22.71;46.37
40730;BME280;26418;50.070;8.436;2023-05-15T10:02:29;99544.03;;;22.90;44.74
40730;BME280;26418;50.070;8.436;2023-05-15T10:04:59;99542.03;;;22.94;44.02
40730;BME280;26418;50.070;8.436;2023-05-15T10:09:54;99544.44;;;23.21;41.37
40730;BME280;26418;50.070;8.436;2023-05-15T10:12:21;99536.50;;;23.45;41.45
40730;BME280;26418;50.070;8.436;2023-05-15T10:14:47;99534.09;;;23.58;40.61
40730;BME280;26418;50.070;8.436;2023-05-15T10:17:14;99531.78;;;23.49;41.81
40730;BME280;26418;50.070;8.436;2023-05-15T10:19:41;99529.00;;;23.49;41.45
40730;BME280;26418;50.070;8.436;2023-05-15T10:22:09;99538.03;;;23.71;41.92
40730;BME280;26418;50.070;8.436;2023-05-15T10:24:37;99539.53;;;23.94;40.79
40730;BME280;26418;50.070;8.436;2023-05-15T10:27:05;99533.59;;;23.92;40.86
40730;BME280;26418;50.070;8.436;2023-05-15T10:29:31;99526.44;;;24.05;39.48
40730;BME280;26418;50.070;8.436;2023-05-15T10:31:59;99530.41;;;24.08;40.19
40730;BME280;26418;50.070;8.436;2023-05-15T10:34:25;99526.88;;;23.93;40.89
40730;BME280;26418;50.070;8.436;2023-05-15T10:36:52;99530.09;;;23.84;41.63
40730;BME280;26418;50.070;8.436;2023-05-15T10:39:19;99525.06;;;23.53;41.91
40730;BME280;26418;50.070;8.436;2023-05-15T10:41:45;99517.97;;;23.38;42.44
40730;BME280;26418;50.070;8.436;2023-05-15T10:44:12;99517.97;;;23.52;42.88
40730;BME280;26418;50.070;8.436;2023-05-15T10:46:38;99514.72;;;23.72;41.98
40730;BME280;26418;50.070;8.436;2023-05-15T10:49:05;99512.78;;;23.65;42.43
40730;BME280;26418;50.070;8.436;2023-05-15T10:51:31;99521.06;;;23.69;40.91
40730;BME280;26418;50.070;8.436;2023-05-15T10:53:59;99507.59;;;23.82;40.92
40730;BME280;26418;50.070;8.436;2023-05-15T10:56:31;99501.28;;;23.81;40.85
40730;BME280;26418;50.070;8.436;2023-05-15T10:59:04;99495.41;;;23.68;41.85
40730;BME280;26418;50.070;8.436;2023-05-15T11:01:32;99494.13;;;23.98;41.49
40730;BME280;26418;50.070;8.436;2023-05-15T11:04:12;99482.31;;;23.91;40.03
40730;BME280;26418;50.070;8.436;2023-05-15T11:06:40;99492.25;;;23.74;40.96
40730;BME280;26418;50.070;8.436;2023-05-15T11:11:54;99489.56;;;24.37;38.63
40730;BME280;26418;50.070;8.436;2023-05-15T11:14:25;99486.22;;;24.60;37.86
40730;BME280;26418;50.070;8.436;2023-05-15T11:24:47;99466.47;;;24.62;37.63
40730;BME280;26418;50.070;8.436;2023-05-15T11:27:24;99475.28;;;24.99;36.89
40730;BME280;26418;50.070;8.436;2023-05-15T11:30:10;99457.97;;;25.29;37.69
40730;BME280;26418;50.070;8.436;2023-05-15T11:32:39;99466.41;;;25.53;36.54
40730;BME280;26418;50.070;8.436;2023-05-15T11:35:18;99456.00;;;25.64;36.08
40730;BME280;26418;50.070;8.436;2023-05-15T11:37:52;99451.16;;;25.99;35.99
40730;BME280;26418;50.070;8.436;2023-05-15T11:43:09;99451.59;;;26.52;34.09
40730;BME280;26418;50.070;8.436;2023-05-15T11:45:41;99442.06;;;26.53;33.92
40730;BME280;26418;50.070;8.436;2023-05-15T11:48:12;99449.94;;;26.31;34.36
40730;BME280;26418;50.070;8.436;2023-05-15T11:50:41;99449.91;;;26.35;34.50
40730;BME280;26418;50.070;8.436;2023-05-15T11:53:08;99447.31;;;26.48;34.30
40730;BME280;26418;50.070;8.436;2023-05-15T11:55:36;99433.09;;;26.46;33.89
40730;BME280;26418;50.070;8.436;2023-05-15T11:58:04;99445.13;;;26.59;32.35
40730;BME280;26418;50.070;8.436;2023-05-15T12:00:30;99436.44;;;26.57;31.46
40730;BME280;26418;50.070;8.436;2023-05-15T12:02:56;99428.13;;;26.57;31.90
40730;BME280;26418;50.070;8.436;2023-05-15T12:05:22;99437.06;;;26.68;31.30
40730;BME280;26418;50.070;8.436;2023-05-15T12:07:48;99441.41;;;27.13;30.52
40730;BME280;26418;50.070;8.436;2023-05-15T12:10:14;99431.41;;;27.60;30.30
40730;BME280;26418;50.070;8.436;2023-05-15T12:12:43;99430.28;;;27.94;29.68
40730;BME280;26418;50.070;8.436;2023-05-15T12:15:13;99437.25;;;28.02;29.96
40730;BME280;26418;50.070;8.436;2023-05-15T12:17:40;99440.84;;;27.83;29.77
40730;BME280;26418;50.070;8.436;2023-05-15T12:22:38;99445.06;;;26.87;30.46
40730;BME280;26418;50.070;8.436;2023-05-15T12:25:05;99446.38;;;26.82;30.46
40730;BME280;26418;50.070;8.436;2023-05-15T12:27:33;99441.44;;;26.18;28.96
40730;BME280;26418;50.070;8.436;2023-05-15T12:29:58;99438.63;;;25.60;30.89
40730;BME280;26418;50.070;8.436;2023-05-15T12:32:25;99452.00;;;25.31;31.74
40730;BME280;26418;50.070;8.436;2023-05-15T12:34:52;99444.25;;;25.15;32.67
40730;BME280;26418;50.070;8.436;2023-05-15T12:37:18;99449.31;;;24.85;31.20
40730;BME280;26418;50.070;8.436;2023-05-15T12:39:54;99434.94;;;24.52;31.24
40730;BME280;26418;50.070;8.436;2023-05-15T12:42:20;99430.25;;;24.49;31.93
40730;BME280;26418;50.070;8.436;2023-05-15T12:44:49;99442.66;;;24.79;31.69
40730;BME280;26418;50.070;8.436;2023-05-15T12:47:21;99438.69;;;25.22;30.95
40730;BME280;26418;50.070;8.436;2023-05-15T12:49:48;99432.03;;;25.50;30.95
40730;BME280;26418;50.070;8.436;2023-05-15T12:52:14;99436.63;;;25.61;31.25
40730;BME280;26418;50.070;8.436;2023-05-15T12:54:40;99441.88;;;25.86;32.05
40730;BME280;26418;50.070;8.436;2023-05-15T12:57:07;99445.16;;;26.04;30.95
40730;BME280;26418;50.070;8.436;2023-05-15T12:59:33;99452.84;;;25.62;30.88
40730;BME280;26418;50.070;8.436;2023-05-15T13:01:59;99442.00;;;25.44;31.31
40730;BME280;26418;50.070;8.436;2023-05-15T13:04:25;99443.13;;;25.12;31.77
40730;BME280;26418;50.070;8.436;2023-05-15T13:06:50;99447.09;;;25.07;31.70
40730;BME280;26418;50.070;8.436;2023-05-15T13:09:21;99443.63;;;25.03;31.88
40730;BME280;26418;50.070;8.436;2023-05-15T13:11:47;99448.53;;;24.85;32.78
40730;BME280;26418;50.070;8.436;2023-05-15T13:14:16;99445.09;;;24.17;32.76
40730;BME280;26418;50.070;8.436;2023-05-15T13:16:44;99439.00;;;24.40;33.24
40730;BME280;26418;50.070;8.436;2023-05-15T13:19:11;99449.84;;;24.69;32.25
40730;BME280;26418;50.070;8.436;2023-05-15T13:21:37;99445.22;;;25.01;32.29
40730;BME280;26418;50.070;8.436;2023-05-15T13:24:03;99445.19;;;25.04;30.74
40730;BME280;26418;50.070;8.436;2023-05-15T13:26:29;99443.56;;;25.07;30.94
40730;BME280;26418;50.070;8.436;2023-05-15T13:28:54;99456.38;;;24.90;30.87
40730;BME280;26418;50.070;8.436;2023-05-15T13:31:20;99461.31;;;24.11;32.54